createdAt,value
2023-02-14T00:01:45.495Z,3.91
2023-02-14T00:04:13.954Z,3.95
2023-02-14T00:06:43.014Z,3.96
2023-02-14T00:09:14.601Z,3.96
2023-02-14T00:11:43.116Z,3.96
2023-02-14T00:14:29.792Z,3.98
2023-02-14T00:16:59.659Z,3.97
2023-02-14T00:19:28.801Z,3.99
2023-02-14T00:21:57.011Z,3.99
2023-02-14T00:24:27.773Z,3.98
2023-02-14T00:26:56.211Z,3.99
2023-02-14T00:29:27.337Z,3.99
2023-02-14T00:31:55.802Z,3.97
2023-02-14T00:34:26.051Z,3.96
2023-02-14T00:36:54.417Z,3.94
2023-02-14T00:39:22.772Z,3.92
2023-02-14T00:41:51.017Z,3.87
2023-02-14T00:44:20.353Z,3.87
2023-02-14T00:46:48.615Z,3.84
2023-02-14T00:49:16.921Z,3.81
2023-02-14T00:51:46.640Z,3.81
2023-02-14T00:54:14.937Z,3.80
2023-02-14T00:56:43.278Z,3.80
2023-02-14T00:59:12.666Z,3.80
2023-02-14T01:01:41.526Z,3.79
2023-02-14T01:04:09.816Z,3.81
2023-02-14T01:06:38.203Z,3.80
2023-02-14T01:09:07.840Z,3.82
2023-02-14T01:11:36.274Z,3.82
2023-02-14T01:14:04.773Z,3.82
2023-02-14T01:16:33.044Z,3.83
2023-02-14T01:19:02.260Z,3.83
2023-02-14T01:21:32.909Z,3.82
2023-02-14T01:24:05.487Z,3.84
2023-02-14T01:26:36.638Z,3.85
2023-02-14T01:29:05.736Z,3.86
2023-02-14T01:31:35.874Z,3.86
2023-02-14T01:34:04.826Z,3.85
2023-02-14T01:36:37.301Z,3.84
2023-02-14T01:39:09.604Z,3.84
2023-02-14T01:41:41.423Z,3.84
2023-02-14T01:44:55.716Z,3.84
2023-02-14T01:47:24.779Z,3.82
2023-02-14T01:49:58.529Z,3.82
2023-02-14T01:52:30.663Z,3.84
2023-02-14T01:55:04.638Z,3.86
2023-02-14T01:57:40.689Z,3.88
2023-02-14T02:00:28.267Z,3.87
2023-02-14T02:02:58.196Z,3.87
2023-02-14T02:05:27.456Z,3.80
2023-02-14T02:08:00.393Z,3.75
2023-02-14T02:10:28.853Z,3.76
2023-02-14T02:13:04.495Z,3.73
2023-02-14T02:15:41.868Z,3.70
2023-02-14T02:18:18.783Z,3.68
2023-02-14T02:21:42.866Z,3.66
2023-02-14T02:24:22.902Z,3.65
2023-02-14T02:27:43.094Z,3.63
2023-02-14T02:30:37.527Z,3.63
2023-02-14T02:34:08.079Z,3.65
2023-02-14T02:36:57.831Z,3.66
2023-02-14T02:39:51.099Z,3.68
2023-02-14T02:42:30.907Z,3.70
2023-02-14T02:45:09.779Z,3.71
2023-02-14T02:47:45.406Z,3.70
2023-02-14T02:50:41.817Z,3.72
2023-02-14T02:53:20.954Z,3.73
2023-02-14T02:56:12.888Z,3.76
2023-02-14T02:58:46.184Z,3.78
2023-02-14T03:01:19.992Z,3.80
2023-02-14T03:04:09.006Z,3.83
2023-02-14T03:06:37.326Z,3.85
2023-02-14T03:09:33.610Z,3.83
2023-02-14T03:12:14.032Z,3.84
2023-02-14T03:14:51.939Z,3.86
2023-02-14T03:17:48.558Z,3.87
2023-02-14T03:20:22.264Z,3.89
2023-02-14T03:22:59.705Z,3.90
2023-02-14T03:25:40.982Z,3.90
2023-02-14T03:28:16.701Z,3.91
2023-02-14T03:30:55.118Z,3.92
2023-02-14T03:33:31.741Z,3.94
2023-02-14T03:36:05.488Z,3.95
2023-02-14T03:38:42.218Z,3.95
2023-02-14T03:41:16.592Z,3.97
2023-02-14T03:43:50.508Z,3.98
2023-02-14T03:46:25.204Z,3.99
2023-02-14T03:48:57.778Z,4.00
2023-02-14T03:51:27.618Z,4.01
2023-02-14T03:53:59.102Z,4.04
2023-02-14T03:56:35.944Z,4.04
2023-02-14T03:59:10.441Z,4.07
2023-02-14T04:01:46.651Z,4.08
2023-02-14T04:04:19.214Z,4.10
2023-02-14T04:06:47.464Z,4.12
2023-02-14T04:09:15.706Z,4.14
2023-02-14T04:11:46.478Z,4.14
2023-02-14T04:14:14.729Z,4.16
2023-02-14T04:16:56.929Z,4.17
2023-02-14T04:19:25.143Z,4.18
2023-02-14T04:21:54.386Z,4.20
2023-02-14T04:24:22.669Z,4.21
2023-02-14T04:27:12.253Z,4.22
2023-02-14T04:29:43.516Z,4.22
2023-02-14T04:32:14.263Z,4.24
2023-02-14T04:34:42.780Z,4.25
2023-02-14T04:37:11.210Z,4.27
2023-02-14T04:39:39.873Z,4.27
2023-02-14T04:42:09.947Z,4.28
2023-02-14T04:44:39.111Z,4.30
2023-02-14T04:47:08.515Z,4.32
2023-02-14T04:49:37.345Z,4.34
2023-02-14T04:52:06.109Z,4.35
2023-02-14T04:54:35.051Z,4.37
2023-02-14T04:57:03.314Z,4.39
2023-02-14T04:59:32.970Z,4.41
2023-02-14T05:02:01.202Z,4.41
2023-02-14T05:04:29.432Z,4.44
2023-02-14T05:06:57.696Z,4.43
2023-02-14T05:09:25.966Z,4.44
2023-02-14T05:11:54.178Z,4.45
2023-02-14T05:14:22.764Z,4.45
2023-02-14T05:16:52.372Z,4.46
2023-02-14T05:19:20.856Z,4.46
2023-02-14T05:21:49.089Z,4.47
2023-02-14T05:24:17.469Z,4.48
2023-02-14T05:26:45.803Z,4.48
2023-02-14T05:29:14.037Z,4.48
2023-02-14T05:31:42.354Z,4.47
2023-02-14T05:34:12.046Z,4.45
2023-02-14T05:36:40.308Z,4.46
2023-02-14T05:39:08.550Z,4.47
2023-02-14T05:44:05.110Z,4.48
2023-02-14T05:46:33.348Z,4.50
2023-02-14T05:49:01.569Z,4.50
2023-02-14T05:51:31.187Z,4.49
2023-02-14T05:54:01.323Z,4.48
2023-02-14T05:56:29.619Z,4.48
2023-02-14T05:58:57.842Z,4.48
2023-02-14T06:01:26.062Z,4.50
2023-02-14T06:03:54.338Z,4.51
2023-02-14T06:06:22.552Z,4.52
2023-02-14T06:08:52.153Z,4.53
2023-02-14T06:11:20.404Z,4.54
2023-02-14T06:13:48.665Z,4.56
2023-02-14T06:16:17.005Z,4.58
2023-02-14T06:18:45.315Z,4.58
2023-02-14T06:21:13.561Z,4.61
2023-02-14T06:23:41.859Z,4.62
2023-02-14T06:26:11.465Z,4.63
2023-02-14T06:28:39.672Z,4.63
2023-02-14T06:31:08.011Z,4.65
2023-02-14T06:33:36.287Z,4.65
2023-02-14T06:36:04.860Z,4.65
2023-02-14T06:38:33.125Z,4.67
2023-02-14T06:41:05.431Z,4.68
2023-02-14T06:43:35.870Z,4.69
2023-02-14T06:46:05.037Z,4.70
2023-02-14T06:48:33.405Z,4.71
2023-02-14T06:51:01.932Z,4.70
2023-02-14T06:53:30.540Z,4.70
2023-02-14T06:55:58.796Z,4.71
2023-02-14T06:58:27.164Z,4.71
2023-02-14T07:00:58.740Z,4.72
2023-02-14T07:03:27.701Z,4.71
2023-02-14T07:05:56.200Z,4.74
2023-02-14T07:08:26.222Z,4.72
2023-02-14T07:10:58.204Z,4.71
2023-02-14T07:13:27.097Z,4.70
2023-02-14T07:15:55.447Z,4.71
2023-02-14T07:18:25.120Z,4.70
2023-02-14T07:20:53.464Z,4.70
2023-02-14T07:23:21.773Z,4.72
2023-02-14T07:25:50.039Z,4.72
2023-02-14T07:28:18.262Z,4.73
2023-02-14T07:30:46.705Z,4.72
2023-02-14T07:33:15.334Z,4.74
2023-02-14T07:35:45.001Z,4.71
2023-02-14T07:38:13.273Z,4.69
2023-02-14T07:40:41.577Z,4.69
2023-02-14T07:43:09.829Z,4.68
2023-02-14T07:45:38.093Z,4.68
2023-02-14T07:48:07.323Z,4.63
2023-02-14T07:50:35.542Z,4.64
2023-02-14T07:53:05.098Z,4.61
2023-02-14T07:55:33.345Z,4.62
2023-02-14T07:58:01.736Z,4.63
2023-02-14T08:00:30.132Z,4.64
2023-02-14T08:02:58.374Z,4.64
2023-02-14T08:05:26.625Z,4.65
2023-02-14T08:07:54.929Z,4.66
2023-02-14T08:10:24.593Z,4.63
2023-02-14T08:13:02.088Z,4.62
2023-02-14T08:15:50.603Z,4.62
2023-02-14T08:18:20.119Z,4.64
2023-02-14T08:20:49.825Z,4.66
2023-02-14T08:23:19.560Z,4.65
2023-02-14T08:25:49.956Z,4.67
2023-02-14T08:28:18.474Z,4.69
2023-02-14T08:30:47.312Z,4.70
2023-02-14T08:33:15.890Z,4.70
2023-02-14T08:35:44.180Z,4.68
2023-02-14T08:38:12.760Z,4.70
2023-02-14T08:40:41.624Z,4.71
2023-02-14T08:43:11.905Z,4.73
2023-02-14T08:45:40.680Z,4.75
2023-02-14T08:48:12.342Z,4.79
2023-02-14T08:50:41.846Z,4.80
2023-02-14T08:53:11.226Z,4.84
2023-02-14T08:55:40.568Z,4.87
2023-02-14T08:58:10.613Z,4.90
2023-02-14T09:00:39.187Z,4.92
2023-02-14T09:03:07.754Z,4.94
2023-02-14T09:05:36.318Z,4.94
2023-02-14T09:08:05.141Z,4.93
2023-02-14T09:10:33.368Z,4.95
2023-02-14T09:13:01.616Z,4.94
2023-02-14T09:15:31.610Z,4.90
2023-02-14T09:17:59.887Z,4.89
2023-02-14T09:20:28.145Z,4.88
2023-02-14T09:22:57.402Z,4.89
2023-02-14T09:25:25.646Z,4.78
2023-02-14T09:27:53.895Z,4.76
2023-02-14T09:30:22.274Z,4.75
2023-02-14T09:32:53.726Z,4.74
2023-02-14T09:35:22.124Z,4.76
2023-02-14T09:38:08.050Z,4.80
2023-02-14T09:40:36.364Z,4.81
2023-02-14T09:43:11.177Z,4.85
2023-02-14T09:45:40.729Z,4.90
2023-02-14T09:48:26.615Z,4.92
2023-02-14T09:51:00.180Z,4.94
2023-02-14T09:53:31.292Z,4.96
2023-02-14T09:56:08.908Z,4.98
2023-02-14T09:58:44.974Z,5.02
2023-02-14T10:01:21.271Z,5.02
2023-02-14T10:04:17.738Z,5.05
2023-02-14T10:06:51.961Z,5.07
2023-02-14T10:09:49.088Z,5.10
2023-02-14T10:12:25.434Z,5.13
2023-02-14T10:14:56.982Z,5.13
2023-02-14T10:17:37.692Z,5.14
2023-02-14T10:20:18.483Z,5.15
2023-02-14T10:22:53.623Z,5.06
2023-02-14T10:25:27.684Z,5.08
2023-02-14T10:27:59.644Z,5.09
2023-02-14T10:30:28.148Z,5.08
2023-02-14T10:33:05.506Z,5.06
2023-02-14T10:35:44.508Z,5.10
2023-02-14T10:38:27.375Z,5.11
2023-02-14T10:41:30.636Z,5.14
2023-02-14T10:44:13.564Z,5.16
2023-02-14T10:46:51.140Z,5.20
2023-02-14T10:49:35.365Z,5.25
2023-02-14T10:52:15.706Z,5.28
2023-02-14T10:54:47.685Z,5.33
2023-02-14T10:57:21.892Z,5.35
2023-02-14T10:59:54.714Z,5.38
2023-02-14T11:02:32.145Z,5.40
2023-02-14T11:05:01.447Z,5.44
2023-02-14T11:07:31.180Z,5.48
2023-02-14T11:09:59.455Z,5.52
2023-02-14T11:12:37.521Z,5.54
2023-02-14T11:15:27.535Z,5.53
2023-02-14T11:18:22.868Z,5.53
2023-02-14T11:21:03.219Z,5.54
2023-02-14T11:23:38.916Z,5.55
2023-02-14T11:26:15.347Z,5.56
2023-02-14T11:28:54.183Z,5.59
2023-02-14T11:31:34.676Z,5.56
2023-02-14T11:34:06.993Z,5.60
2023-02-14T11:36:43.056Z,5.60
2023-02-14T11:39:28.774Z,5.60
2023-02-14T11:42:01.293Z,5.61
2023-02-14T11:44:33.212Z,5.59
2023-02-14T11:47:21.541Z,5.54
2023-02-14T11:49:58.510Z,5.50
2023-02-14T11:52:29.667Z,5.52
2023-02-14T11:55:00.398Z,5.54
2023-02-14T11:57:33.526Z,5.53
2023-02-14T12:00:05.962Z,5.54
2023-02-14T12:02:39.656Z,5.53
2023-02-14T12:05:19.265Z,5.52
2023-02-14T12:07:49.698Z,5.55
2023-02-14T12:10:28.226Z,5.58
2023-02-14T12:13:01.218Z,5.60
2023-02-14T12:15:37.894Z,5.62
2023-02-14T12:18:54.292Z,5.68
2023-02-14T12:21:41.065Z,5.67
2023-02-14T12:24:21.820Z,5.70
2023-02-14T12:27:02.027Z,5.70
2023-02-14T12:29:37.611Z,5.71
2023-02-14T12:32:20.222Z,5.76
2023-02-14T12:34:49.305Z,5.78
2023-02-14T12:37:35.674Z,5.82
2023-02-14T12:40:23.827Z,5.85
2023-02-14T12:43:40.882Z,5.88
2023-02-14T12:46:23.170Z,5.89
2023-02-14T12:49:13.791Z,5.91
2023-02-14T12:51:50.478Z,5.93
2023-02-14T12:54:41.960Z,5.96
2023-02-14T12:57:25.231Z,5.98
2023-02-14T13:00:05.453Z,6.00
2023-02-14T13:03:11.660Z,6.03
2023-02-14T13:05:51.755Z,6.04
2023-02-14T13:08:38.916Z,6.06
2023-02-14T13:11:16.704Z,6.09
2023-02-14T13:13:57.143Z,6.12
2023-02-14T13:16:35.220Z,6.15
2023-02-14T13:19:16.048Z,6.19
2023-02-14T13:21:45.205Z,6.18
2023-02-14T13:24:19.409Z,6.20
2023-02-14T13:26:53.867Z,6.21
2023-02-14T13:29:25.264Z,6.22
2023-02-14T13:31:59.930Z,6.22
2023-02-14T13:34:32.712Z,6.25
2023-02-14T13:37:03.856Z,6.26
2023-02-14T13:39:38.653Z,6.25
2023-02-14T13:42:08.539Z,6.27
2023-02-14T13:44:49.021Z,6.30
2023-02-14T13:47:21.469Z,6.30
2023-02-14T13:49:54.781Z,6.29
2023-02-14T13:52:43.973Z,6.31
2023-02-14T13:55:19.492Z,6.32
2023-02-14T13:57:48.454Z,6.32
2023-02-14T14:00:41.434Z,6.34
2023-02-14T14:03:15.948Z,6.35
2023-02-14T14:06:06.678Z,6.38
2023-02-14T14:08:44.298Z,6.40
2023-02-14T14:11:56.955Z,6.38
2023-02-14T14:14:37.278Z,6.37
2023-02-14T14:17:28.531Z,6.35
2023-02-14T14:19:58.814Z,6.34
2023-02-14T14:22:28.267Z,6.35
2023-02-14T14:25:01.018Z,6.35
2023-02-14T14:27:34.117Z,6.35
2023-02-14T14:30:05.100Z,6.36
2023-02-14T14:32:36.327Z,6.36
2023-02-14T14:35:18.850Z,6.38
2023-02-14T14:37:50.735Z,6.39
2023-02-14T14:40:27.803Z,6.39
2023-02-14T14:43:01.121Z,6.39
2023-02-14T14:45:32.437Z,6.43
2023-02-14T14:48:09.985Z,6.43
2023-02-14T14:50:39.997Z,6.43
2023-02-14T14:53:19.111Z,6.42
2023-02-14T14:55:51.954Z,6.42
2023-02-14T14:58:36.077Z,6.41
2023-02-14T15:01:05.909Z,6.41
2023-02-14T15:03:34.971Z,6.41
2023-02-14T15:06:17.270Z,6.41
2023-02-14T15:08:48.084Z,6.43
2023-02-14T15:11:35.128Z,6.41
2023-02-14T15:14:05.732Z,6.41
2023-02-14T15:16:48.639Z,6.39
2023-02-14T15:19:23.536Z,6.39
2023-02-14T15:21:53.449Z,6.31
2023-02-14T15:24:21.839Z,6.30
2023-02-14T15:26:53.402Z,6.29
2023-02-14T15:29:25.204Z,6.28
2023-02-14T15:31:53.930Z,6.27
2023-02-14T15:34:26.186Z,6.27
2023-02-14T15:36:59.183Z,6.26
2023-02-14T15:39:34.683Z,6.27
2023-02-14T15:42:03.015Z,6.26
2023-02-14T15:44:31.463Z,6.24
2023-02-14T15:47:05.581Z,6.22
2023-02-14T15:49:37.617Z,6.20
2023-02-14T15:52:07.984Z,6.17
2023-02-14T15:54:39.820Z,6.14
2023-02-14T15:57:20.077Z,6.11
2023-02-14T15:59:48.897Z,6.04
2023-02-14T16:02:30.197Z,6.01
2023-02-14T16:05:07.230Z,5.97
2023-02-14T16:07:36.842Z,5.95
2023-02-14T16:10:25.362Z,5.89
2023-02-14T16:13:00.392Z,5.84
2023-02-14T16:15:30.153Z,5.84
2023-02-14T16:17:59.034Z,5.81
2023-02-14T16:20:41.967Z,5.77
2023-02-14T16:23:24.037Z,5.72
2023-02-14T16:25:53.104Z,5.69
2023-02-14T16:28:22.942Z,5.64
2023-02-14T16:30:56.640Z,5.60
2023-02-14T16:33:28.792Z,5.59
2023-02-14T16:36:03.733Z,5.54
2023-02-14T16:38:38.071Z,5.53
2023-02-14T16:41:07.189Z,5.52
2023-02-14T16:43:35.476Z,5.53
2023-02-14T16:46:03.742Z,5.54
2023-02-14T16:48:32.021Z,5.57
2023-02-14T16:51:00.511Z,5.59
2023-02-14T16:53:29.971Z,5.62
2023-02-14T16:56:00.098Z,5.62
2023-02-14T16:58:34.324Z,5.64
2023-02-14T17:01:03.010Z,5.65
2023-02-14T17:03:31.592Z,5.66
2023-02-14T17:06:01.496Z,5.67
2023-02-14T17:08:30.360Z,5.67
2023-02-14T17:11:02.040Z,5.65
2023-02-14T17:13:33.671Z,5.60
2023-02-14T17:16:02.599Z,5.59
2023-02-14T17:18:34.424Z,5.55
2023-02-14T17:21:03.253Z,5.52
2023-02-14T17:23:31.690Z,5.48
2023-02-14T17:26:01.377Z,5.45
2023-02-14T17:28:30.039Z,5.42
2023-02-14T17:31:00.569Z,5.41
2023-02-14T17:33:30.487Z,5.39
2023-02-14T17:36:06.665Z,5.37
2023-02-14T17:38:35.937Z,5.34
2023-02-14T17:41:14.719Z,5.29
2023-02-14T17:43:43.093Z,5.26
2023-02-14T17:46:11.539Z,5.24
2023-02-14T17:48:39.804Z,5.19
2023-02-14T17:51:10.275Z,5.14
2023-02-14T17:53:41.447Z,5.08
2023-02-14T17:56:14.652Z,4.98
2023-02-14T17:58:42.951Z,4.97
2023-02-14T18:01:13.146Z,4.94
2023-02-14T18:03:42.116Z,4.95
2023-02-14T18:06:11.990Z,4.93
2023-02-14T18:08:43.300Z,4.90
2023-02-14T18:11:14.589Z,4.88
2023-02-14T18:13:43.217Z,4.86
2023-02-14T18:16:14.969Z,4.83
2023-02-14T18:18:43.373Z,4.79
2023-02-14T18:21:14.888Z,4.79
2023-02-14T18:23:43.817Z,4.75
2023-02-14T18:26:16.872Z,4.72
2023-02-14T18:28:45.496Z,4.69
2023-02-14T18:31:16.594Z,4.65
2023-02-14T18:33:46.025Z,4.62
2023-02-14T18:36:16.917Z,4.60
2023-02-14T18:38:47.154Z,4.53
2023-02-14T18:41:19.933Z,4.47
2023-02-14T18:43:49.092Z,4.39
2023-02-14T18:46:19.765Z,4.37
2023-02-14T18:48:48.588Z,4.34
2023-02-14T18:51:19.139Z,4.31
2023-02-14T18:53:48.333Z,4.30
2023-02-14T18:56:21.045Z,4.30
2023-02-14T18:58:52.860Z,4.29
2023-02-14T19:01:24.638Z,4.30
2023-02-14T19:03:54.609Z,4.28
2023-02-14T19:06:23.377Z,4.28
2023-02-14T19:08:51.648Z,4.29
2023-02-14T19:11:23.800Z,4.29
2023-02-14T19:13:55.009Z,4.30
2023-02-14T19:16:27.553Z,4.28
2023-02-14T19:18:56.341Z,4.29
2023-02-14T19:21:27.133Z,4.28
2023-02-14T19:23:57.565Z,4.30
2023-02-14T19:26:30.242Z,4.30
2023-02-14T19:29:02.705Z,4.30
2023-02-14T19:31:31.551Z,4.32
2023-02-14T19:33:59.886Z,4.31
2023-02-14T19:36:28.161Z,4.31
2023-02-14T19:38:58.145Z,4.30
2023-02-14T19:41:31.650Z,4.31
2023-02-14T19:44:00.622Z,4.31
2023-02-14T19:46:30.554Z,4.31
2023-02-14T19:48:59.988Z,4.33
2023-02-14T19:51:30.253Z,4.31
2023-02-14T19:54:01.194Z,4.29
2023-02-14T19:56:34.534Z,4.27
2023-02-14T19:59:07.736Z,4.28
2023-02-14T20:01:39.509Z,4.27
2023-02-14T20:04:10.978Z,4.27
2023-02-14T20:06:39.797Z,4.25
2023-02-14T20:09:09.260Z,4.23
2023-02-14T20:11:42.383Z,4.20
2023-02-14T20:14:10.655Z,4.18
2023-02-14T20:16:39.347Z,4.15
2023-02-14T20:19:12.080Z,4.14
2023-02-14T20:21:42.638Z,4.14
2023-02-14T20:24:12.331Z,4.15
2023-02-14T20:26:42.306Z,4.16
2023-02-14T20:29:11.703Z,4.19
2023-02-14T20:31:43.750Z,4.20
2023-02-14T20:34:12.861Z,4.22
2023-02-14T20:36:42.163Z,4.23
2023-02-14T20:39:13.807Z,4.25
2023-02-14T20:41:48.335Z,4.24
2023-02-14T20:44:19.778Z,4.25
2023-02-14T20:46:49.205Z,4.24
2023-02-14T20:49:17.483Z,4.24
2023-02-14T20:51:46.525Z,4.23
2023-02-14T20:54:14.867Z,4.23
2023-02-14T20:56:44.457Z,4.20
2023-02-14T20:59:12.994Z,4.18
2023-02-14T21:01:41.659Z,4.17
2023-02-14T21:04:10.129Z,4.16
2023-02-14T21:06:39.967Z,4.14
2023-02-14T21:09:08.646Z,4.14
2023-02-14T21:11:36.938Z,4.14
2023-02-14T21:14:06.575Z,4.13
2023-02-14T21:16:34.858Z,4.08
2023-02-14T21:19:04.182Z,4.06
2023-02-14T21:21:36.115Z,4.03
2023-02-14T21:24:07.980Z,4.00
2023-02-14T21:26:36.383Z,4.00
2023-02-14T21:29:07.158Z,3.96
2023-02-14T21:31:35.845Z,3.94
2023-02-14T21:34:04.955Z,3.94
2023-02-14T21:36:36.391Z,3.92
2023-02-14T21:39:06.725Z,3.93
2023-02-14T21:41:36.740Z,3.94
2023-02-14T21:44:07.509Z,3.92
2023-02-14T21:46:38.878Z,3.91
2023-02-14T21:49:25.372Z,3.89
2023-02-14T21:51:53.715Z,3.85
2023-02-14T21:54:22.005Z,3.82
2023-02-14T21:56:50.395Z,3.80
2023-02-14T21:59:20.012Z,3.79
2023-02-14T22:01:48.282Z,3.75
2023-02-14T22:04:16.552Z,3.76
2023-02-14T22:06:44.865Z,3.75
2023-02-14T22:09:17.414Z,3.72
2023-02-14T22:11:47.531Z,3.72
2023-02-14T22:14:16.172Z,3.70
2023-02-14T22:16:45.780Z,3.69
2023-02-14T22:19:16.861Z,3.70
2023-02-14T22:21:45.303Z,3.71
2023-02-14T22:24:14.112Z,3.72
2023-02-14T22:26:42.509Z,3.74
2023-02-14T22:29:13.649Z,3.74
2023-02-14T22:31:45.437Z,3.74
2023-02-14T22:34:17.831Z,3.74
2023-02-14T22:36:46.175Z,3.74
2023-02-14T22:39:16.283Z,3.75
2023-02-14T22:41:44.974Z,3.75
2023-02-14T22:44:14.549Z,3.73
2023-02-14T22:46:43.474Z,3.71
2023-02-14T22:49:14.401Z,3.68
2023-02-14T22:51:45.004Z,3.65
2023-02-14T22:54:15.294Z,3.63
2023-02-14T22:56:45.788Z,3.60
2023-02-14T22:59:19.809Z,3.57
2023-02-14T23:01:49.768Z,3.55
2023-02-14T23:04:22.608Z,3.52
2023-02-14T23:06:52.259Z,3.47
2023-02-14T23:09:21.305Z,3.46
2023-02-14T23:11:50.869Z,3.41
2023-02-14T23:14:37.446Z,3.42
2023-02-14T23:17:24.377Z,3.34
2023-02-14T23:20:11.742Z,3.30
2023-02-14T23:22:41.765Z,3.25
2023-02-14T23:25:12.507Z,3.18
2023-02-14T23:27:43.047Z,3.15
2023-02-14T23:30:14.424Z,3.13
2023-02-14T23:32:42.941Z,3.13
2023-02-14T23:35:12.640Z,3.11
2023-02-14T23:37:41.747Z,3.12
2023-02-14T23:40:11.207Z,3.10
2023-02-14T23:42:39.501Z,3.07
2023-02-14T23:45:26.663Z,3.03
2023-02-14T23:47:54.981Z,3.00
2023-02-14T23:50:24.637Z,3.00
2023-02-14T23:52:52.885Z,3.01
2023-02-14T23:55:21.156Z,3.02
2023-02-14T23:57:49.451Z,3.02
